Currently 61°F in Fallbrook, California, USA
61°F
63°F / 55°F
2 mph S
0.01"
Saturday, December 14, 2019 3:45 PM PST

Fallbrook, California Weather Summary
Last 36 Hours

Temperature Winds Hourly Humidity Dewpoint
Time Report Norm Report Norm Max Gusts Precip. Rpt. Norm Rpt. Norm Pressure
1Sat 03:45 PM  61.1°F  63°F  2 mph S  2 mph  7 mph  0.00"  7%  61%  -7°F  49°F  29.93"
Sat 03:00 PM  62.6°F  64°F  2 mph SW  2 mph  8 mph  0.00"  6%  58%  -11°F  49°F  29.93"
2Sat 02:23 PM  62.9°F  65°F  3 mph S  3 mph  7 mph  ----  5%  56%  -13°F  48°F  29.93"
Sat 02:00 PM  62.5°F  65°F  2 mph S  3 mph  6 mph  0.00"  5%  55%  -12°F  48°F  29.94"
Sat 01:00 PM  60.8°F  66°F  calm  2 mph  none  0.00"  8%  52%  -5°F  47°F  29.96"
Sat 12:00 PM  60.1°F  65°F  calm  2 mph  none  0.00"  11%  53%  2°F  47°F  29.98"
Sat 11:00 AM  58.0°F  63°F  calm  2 mph  none  0.00"  14%  57%  7°F  47°F  30.00"
Sat 10:00 AM  56.6°F  60°F  calm  1 mph  none  0.00"  18%  62%  11°F  47°F  30.02"
Sat 09:00 AM  55.4°F  57°F  calm  1 mph  none  0.00"  18%  67%  11°F  46°F  30.03"
Sat 08:00 AM  54.8°F  52°F  calm  1 mph  none  0.00"  19%  72%  11°F  43°F  30.01"
Sat 07:00 AM  54.7°F  51°F  calm  1 mph  3 mph  0.01"  19%  73%  12°F  42°F  30.02"
3Sat 06:59 AM  54.7°F  51°F  calm  1 mph  none  ----  19%  73%  12°F  42°F  30.02"
Sat 06:00 AM  55.1°F  51°F  calm  1 mph  none  0.00"  19%  72%  12°F  42°F  30.00"
Sat 05:00 AM  55.3°F  51°F  calm  1 mph  none  0.00"  19%  73%  12°F  42°F  30.00"
Sat 04:00 AM  55.4°F  52°F  calm  1 mph  none  0.00"  19%  73%  12°F  43°F  30.00"
Sat 03:00 AM  55.5°F  52°F  calm  1 mph  none  0.00"  19%  74%  12°F  43°F  30.01"
Sat 02:00 AM  55.6°F  52°F  calm  1 mph  none  0.00"  19%  74%  12°F  44°F  30.02"
Sat 01:00 AM  55.3°F  52°F  calm  1 mph  3 mph  0.00"  19%  75%  12°F  44°F  30.03"
Sat 12:00 AM  55.8°F  53°F  calm  1 mph  none  0.00"  19%  76%  12°F  45°F  30.03"
Fri 11:00 PM  55.5°F  53°F  calm  1 mph  none  0.00"  19%  77%  11°F  46°F  30.03"
Fri 10:00 PM  55.5°F  54°F  calm  1 mph  none  0.00"  18%  78%  11°F  46°F  30.05"
Fri 09:00 PM  55.1°F  54°F  calm  1 mph  none  0.00"  18%  78%  10°F  47°F  30.05"
Fri 08:00 PM  55.5°F  55°F  calm  1 mph  none  0.00"  18%  78%  10°F  48°F  30.04"
Fri 07:00 PM  56.1°F  55°F  calm  calm  2 mph  0.00"  16%  78%  9°F  48°F  30.05"
Fri 06:00 PM  57.1°F  56°F  calm  1 mph  none  0.00"  14%  77%  6°F  49°F  30.05"
Fri 05:00 PM  60.0°F  58°F  calm  calm  3 mph  0.00"  8%  72%  -4°F  49°F  30.05"
Fri 04:00 PM  63.8°F  62°F  1 mph SW  1 mph  5 mph  0.00"  3%  64%  -21°F  49°F  30.05"
Fri 03:00 PM  66.9°F  64°F  2 mph S  2 mph  6 mph  0.00"  0%  58%  -459°F  49°F  30.05"
Fri 02:00 PM  68.3°F  65°F  2 mph S  2 mph  10 mph  0.00"  0%  54%  -459°F  48°F  30.05"
Fri 01:00 PM  72.3°F  66°F  3 mph S  2 mph  7 mph  0.00"  0%  52%  -459°F  47°F  30.06"
Fri 12:00 PM  72.7°F  65°F  2 mph S  2 mph  6 mph  0.00"  0%  53%  -459°F  47°F  30.08"
Fri 11:00 AM  70.4°F  63°F  1 mph SW  2 mph  3 mph  0.00"  0%  57%  -459°F  47°F  30.12"
Fri 10:00 AM  66.0°F  60°F  calm  1 mph  3 mph  0.00"  0%  62%  -459°F  47°F  30.15"
Fri 09:00 AM  61.7°F  57°F  calm  1 mph  1 mph  0.00"  3%  67%  -27°F  46°F  30.16"
Fri 08:00 AM  54.7°F  53°F  calm  1 mph  3 mph  0.00"  6%  71%  -16°F  43°F  30.16"
Fri 07:00 AM  52.6°F  51°F  calm  1 mph  none  0.00"  7%  72%  -13°F  42°F  30.15"
Fri 06:00 AM  52.3°F  51°F  calm  1 mph  1 mph  0.00"  8%  72%  -11°F  42°F  30.16"
Fri 05:00 AM  54.7°F  52°F  calm  1 mph  none  0.00"  5%  72%  -18°F  42°F  30.16"
Fri 04:00 AM  53.5°F  52°F  calm  1 mph  none  0.00"  6%  72%  -15°F  43°F  30.16"

  1. Current weather data. No green row appears if the current weather data is also the high or low for the current day.
  2. High temperature for the current day.
  3. Low temperature for the current day.

The Fallbrook weather pages are a service of WeatherCurrents. Fallbrook, California is located in northern San Diego County, close to I15 and Camp Pendleton, and is home to ranches, avocado and citrus groves, and plant nurseries.
Copyright ©2019  WeatherCurrents. All rights reserved. - Submit questions and comments - Privacy Policy

This page automatically refreshes every 10 minutes.